createdAt,value
2019-05-16T00:00:09.205Z,14.20
2019-05-16T00:01:11.288Z,15.20
2019-05-16T00:02:14.181Z,14.00
2019-05-16T00:03:18.696Z,16.00
2019-05-16T00:04:20.622Z,17.40
2019-05-16T00:05:23.461Z,17.20
2019-05-16T00:06:25.822Z,14.20
2019-05-16T00:07:29.252Z,12.60
2019-05-16T00:08:31.551Z,15.00
2019-05-16T00:09:33.607Z,15.40
2019-05-16T00:10:38.329Z,16.60
2019-05-16T00:11:40.930Z,14.00
2019-05-16T00:12:44.633Z,16.00
2019-05-16T00:13:48.830Z,16.80
2019-05-16T00:14:51.481Z,15.60
2019-05-16T00:15:54.351Z,15.20
2019-05-16T00:16:58.781Z,16.20
2019-05-16T00:18:01.057Z,13.60
2019-05-16T00:19:03.016Z,15.60
2019-05-16T00:20:09.404Z,16.80
2019-05-16T00:21:12.340Z,14.60
2019-05-16T00:22:14.950Z,18.00
2019-05-16T00:23:21.061Z,17.00
2019-05-16T00:24:23.346Z,12.60
2019-05-16T00:25:25.876Z,13.60
2019-05-16T00:26:29.082Z,13.00
2019-05-16T00:27:31.772Z,12.80
2019-05-16T00:28:34.132Z,16.20
2019-05-16T00:29:38.285Z,13.40
2019-05-16T00:30:41.009Z,10.80
2019-05-16T00:31:43.556Z,12.00
2019-05-16T00:32:48.056Z,15.60
2019-05-16T00:33:50.651Z,14.80
2019-05-16T00:34:52.936Z,13.80
2019-05-16T00:36:02.458Z,9.80
2019-05-16T00:36:59.348Z,11.00
2019-05-16T00:38:02.094Z,13.80
2019-05-16T00:39:05.283Z,9.80
2019-05-16T00:40:08.260Z,13.00
2019-05-16T00:41:11.320Z,13.80
2019-05-16T00:42:14.203Z,12.00
2019-05-16T00:43:18.405Z,12.60
2019-05-16T00:44:21.139Z,11.00
2019-05-16T00:45:24.360Z,11.60
2019-05-16T00:46:27.910Z,8.80
2019-05-16T00:47:33.255Z,8.80
2019-05-16T00:48:38.018Z,9.40
2019-05-16T00:49:40.005Z,8.00
2019-05-16T00:50:42.653Z,11.60
2019-05-16T00:51:44.834Z,9.00
2019-05-16T00:52:48.863Z,9.20
2019-05-16T00:53:51.583Z,8.00
2019-05-16T00:54:54.025Z,10.60
2019-05-16T00:55:58.474Z,12.20
2019-05-16T00:57:02.503Z,9.20
2019-05-16T00:58:08.855Z,8.00
2019-05-16T00:59:12.094Z,8.20
2019-05-16T01:00:14.606Z,6.40
2019-05-16T01:01:18.999Z,8.00
2019-05-16T01:02:21.515Z,9.20
2019-05-16T01:03:24.079Z,9.60
2019-05-16T01:04:28.769Z,10.00
2019-05-16T01:05:31.653Z,8.80
2019-05-16T01:06:34.328Z,8.80
2019-05-16T01:07:39.194Z,7.80
2019-05-16T01:08:41.592Z,9.00
2019-05-16T01:09:45.152Z,8.40
2019-05-16T01:10:50.914Z,10.20
2019-05-16T01:11:52.342Z,9.20
2019-05-16T01:12:54.003Z,7.60
2019-05-16T01:13:57.863Z,6.80
2019-05-16T01:15:02.549Z,6.20
2019-05-16T01:16:08.406Z,10.00
2019-05-16T01:17:10.965Z,6.40
2019-05-16T01:18:12.860Z,8.40
2019-05-16T01:19:15.304Z,8.00
2019-05-16T01:20:19.193Z,10.00
2019-05-16T01:21:21.960Z,7.00
2019-05-16T01:22:23.635Z,7.20
2019-05-16T01:23:28.147Z,9.00
2019-05-16T01:24:30.294Z,7.00
2019-05-16T01:25:34.123Z,8.00
2019-05-16T01:26:39.026Z,9.00
2019-05-16T01:27:40.745Z,8.80
2019-05-16T01:28:43.213Z,8.80
2019-05-16T01:29:47.724Z,8.80
2019-05-16T01:30:50.252Z,9.00
2019-05-16T01:31:54.686Z,9.80
2019-05-16T01:32:58.290Z,8.00
2019-05-16T01:34:00.224Z,8.20
2019-05-16T01:35:05.714Z,7.80
2019-05-16T01:36:09.217Z,8.00
2019-05-16T01:37:11.064Z,8.00
2019-05-16T01:38:14.002Z,7.00
2019-05-16T01:39:18.273Z,8.00
2019-05-16T01:40:20.323Z,9.60
2019-05-16T01:41:22.996Z,8.80
2019-05-16T01:42:27.717Z,6.60
2019-05-16T01:43:29.912Z,7.80
2019-05-16T01:44:33.866Z,7.00
2019-05-16T01:45:35.673Z,6.40
2019-05-16T01:46:39.064Z,8.40
2019-05-16T01:47:43.607Z,6.00
2019-05-16T01:48:48.505Z,7.00
2019-05-16T01:49:51.673Z,7.00
2019-05-16T01:50:54.019Z,7.20
2019-05-16T01:51:57.861Z,7.00
2019-05-16T01:53:00.405Z,7.80
2019-05-16T01:54:03.539Z,6.80
2019-05-16T01:55:08.232Z,7.00
2019-05-16T01:56:10.937Z,7.80
2019-05-16T01:57:13.694Z,8.20
2019-05-16T01:58:20.086Z,7.40
2019-05-16T01:59:21.391Z,7.40
2019-05-16T02:00:25.738Z,7.00
2019-05-16T02:01:28.826Z,7.00
2019-05-16T02:02:31.303Z,8.00
2019-05-16T02:03:33.324Z,7.00
2019-05-16T02:04:37.838Z,5.00
2019-05-16T02:05:42.320Z,7.00
2019-05-16T02:06:51.708Z,5.20
2019-05-16T02:07:49.300Z,6.20
2019-05-16T02:08:52.006Z,4.00
2019-05-16T02:09:54.389Z,7.60
2019-05-16T02:10:59.043Z,6.00
2019-05-16T02:12:02.241Z,7.40
2019-05-16T02:13:03.894Z,7.80
2019-05-16T02:14:09.470Z,5.80
2019-05-16T02:15:13.778Z,8.00
2019-05-16T02:16:15.860Z,7.00
2019-05-16T02:17:18.704Z,9.40
2019-05-16T02:18:20.626Z,8.00
2019-05-16T02:19:22.558Z,8.00
2019-05-16T02:20:24.881Z,10.00
2019-05-16T02:21:28.742Z,12.20
2019-05-16T02:22:31.128Z,10.00
2019-05-16T02:23:33.878Z,9.40
2019-05-16T02:24:35.666Z,8.40
2019-05-16T02:25:40.816Z,7.00
2019-05-16T02:26:42.220Z,8.00
2019-05-16T02:27:48.602Z,11.00
2019-05-16T02:28:51.058Z,9.00
2019-05-16T02:29:53.908Z,8.20
2019-05-16T02:30:56.525Z,8.60
2019-05-16T02:32:01.994Z,8.40
2019-05-16T02:33:03.685Z,10.00
2019-05-16T02:34:06.495Z,9.40
2019-05-16T02:35:11.780Z,9.40
2019-05-16T02:36:14.265Z,7.00
2019-05-16T02:37:24.027Z,6.00
2019-05-16T02:38:23.724Z,8.60
2019-05-16T02:39:26.097Z,6.80
2019-05-16T02:40:31.282Z,9.00
2019-05-16T02:41:33.421Z,6.80
2019-05-16T02:42:35.613Z,10.20
2019-05-16T02:43:41.722Z,6.80
2019-05-16T02:44:42.988Z,8.20
2019-05-16T02:45:44.776Z,8.20
2019-05-16T02:46:47.036Z,7.00
2019-05-16T02:47:51.318Z,6.60
2019-05-16T02:48:54.616Z,5.80
2019-05-16T02:49:57.054Z,8.60
2019-05-16T02:51:01.893Z,8.00
2019-05-16T02:52:04.057Z,7.20
2019-05-16T02:53:06.825Z,8.00
2019-05-16T02:54:11.036Z,8.00
2019-05-16T02:55:13.633Z,9.00
2019-05-16T02:56:16.371Z,9.00
2019-05-16T02:57:21.514Z,8.80
2019-05-16T02:58:23.933Z,8.40
2019-05-16T02:59:26.384Z,8.00
2019-05-16T03:00:42.053Z,9.00
2019-05-16T03:01:44.234Z,8.00
2019-05-16T03:02:50.366Z,6.80
2019-05-16T03:03:52.945Z,7.20
2019-05-16T03:04:55.663Z,6.00
2019-05-16T03:06:01.436Z,8.40
2019-05-16T03:07:04.242Z,8.40
2019-05-16T03:08:07.112Z,8.00
2019-05-16T03:09:11.328Z,8.40
2019-05-16T03:10:14.163Z,8.60
2019-05-16T03:11:20.792Z,10.00
2019-05-16T03:12:21.557Z,8.60
2019-05-16T03:13:26.440Z,8.00
2019-05-16T03:14:31.527Z,8.40
2019-05-16T03:15:34.308Z,7.60
2019-05-16T03:16:41.510Z,8.80
2019-05-16T03:17:47.148Z,8.60
2019-05-16T03:18:52.041Z,5.00
2019-05-16T03:19:57.363Z,8.00
2019-05-16T03:21:01.146Z,9.40
2019-05-16T03:22:04.913Z,8.00
2019-05-16T03:23:08.293Z,5.00
2019-05-16T03:24:11.921Z,6.20
2019-05-16T03:25:15.907Z,5.00
2019-05-16T03:26:21.064Z,6.40
2019-05-16T03:27:22.492Z,6.60
2019-05-16T03:28:25.346Z,6.60
2019-05-16T03:29:30.703Z,8.00
2019-05-16T03:30:35.281Z,7.80
2019-05-16T03:31:36.494Z,7.40
2019-05-16T03:32:44.011Z,6.00
2019-05-16T03:33:50.543Z,6.00
2019-05-16T03:34:47.424Z,6.00
2019-05-16T03:35:54.317Z,6.00
2019-05-16T03:36:55.243Z,7.60
2019-05-16T03:38:03.952Z,9.60
2019-05-16T03:39:04.963Z,8.60
2019-05-16T03:40:06.953Z,8.80
2019-05-16T03:41:11.547Z,7.00
2019-05-16T03:42:13.886Z,5.40
2019-05-16T03:43:16.113Z,9.00
2019-05-16T03:44:21.469Z,9.20
2019-05-16T03:45:24.683Z,6.80
2019-05-16T03:46:26.586Z,8.40
2019-05-16T03:47:31.338Z,5.20
2019-05-16T03:48:32.469Z,9.00
2019-05-16T03:49:35.000Z,9.20
2019-05-16T03:50:37.606Z,8.80
2019-05-16T03:51:41.546Z,6.00
2019-05-16T03:52:44.062Z,5.00
2019-05-16T03:53:46.415Z,5.40
2019-05-16T03:54:50.668Z,4.80
2019-05-16T03:55:52.950Z,4.80
2019-05-16T03:56:55.397Z,5.00
2019-05-16T03:58:00.849Z,4.80
2019-05-16T03:59:02.667Z,6.00
2019-05-16T04:00:06.429Z,6.00
2019-05-16T04:01:11.231Z,5.40
2019-05-16T04:02:12.677Z,5.20
2019-05-16T04:03:15.380Z,4.80
2019-05-16T04:04:20.671Z,6.00
2019-05-16T04:05:21.731Z,5.00
2019-05-16T04:06:24.072Z,4.60
2019-05-16T04:07:26.754Z,6.00
2019-05-16T04:08:31.021Z,6.20
2019-05-16T04:09:35.672Z,6.00
2019-05-16T04:10:40.823Z,9.00
2019-05-16T04:11:43.077Z,7.80
2019-05-16T04:12:45.890Z,7.00
2019-05-16T04:13:50.739Z,6.40
2019-05-16T04:14:52.506Z,6.80
2019-05-16T04:15:55.149Z,7.20
2019-05-16T04:17:01.362Z,8.00
2019-05-16T04:18:04.530Z,8.80
2019-05-16T04:19:06.933Z,8.60
2019-05-16T04:20:11.765Z,7.80
2019-05-16T04:21:17.526Z,9.00
2019-05-16T04:22:21.435Z,8.20
2019-05-16T04:23:24.436Z,8.20
2019-05-16T04:24:26.726Z,7.00
2019-05-16T04:25:31.108Z,8.80
2019-05-16T04:26:35.865Z,6.20
2019-05-16T04:27:36.600Z,8.00
2019-05-16T04:28:41.243Z,5.80
2019-05-16T04:29:43.903Z,8.00
2019-05-16T04:30:45.635Z,9.00
2019-05-16T04:31:50.781Z,11.20
2019-05-16T04:32:52.273Z,8.20
2019-05-16T04:33:55.763Z,9.00
2019-05-16T04:35:02.180Z,8.00
2019-05-16T04:36:05.646Z,9.40
2019-05-16T04:37:07.330Z,9.80
2019-05-16T04:38:13.182Z,8.20
2019-05-16T04:39:15.989Z,9.80
2019-05-16T04:40:18.117Z,12.40
2019-05-16T04:41:22.081Z,10.40
2019-05-16T04:42:24.259Z,11.60
2019-05-16T04:43:27.265Z,9.60
2019-05-16T04:44:31.867Z,13.20
2019-05-16T04:45:33.651Z,9.00
2019-05-16T04:46:36.593Z,10.00
2019-05-16T04:47:41.347Z,8.00
2019-05-16T04:48:42.958Z,10.60
2019-05-16T04:49:45.446Z,7.60
2019-05-16T04:50:51.601Z,10.00
2019-05-16T04:51:52.671Z,10.00
2019-05-16T04:52:56.429Z,8.00
2019-05-16T04:54:01.975Z,8.20
2019-05-16T04:55:11.320Z,6.40
2019-05-16T04:56:12.688Z,4.20
2019-05-16T04:57:16.802Z,6.20
2019-05-16T04:58:23.209Z,9.00
2019-05-16T04:59:24.516Z,5.20
2019-05-16T05:00:27.127Z,6.00
2019-05-16T05:01:30.696Z,6.60
2019-05-16T05:02:33.456Z,8.60
2019-05-16T05:03:35.934Z,5.60
2019-05-16T05:04:41.391Z,5.40
2019-05-16T05:05:44.634Z,6.20
2019-05-16T05:06:46.821Z,6.80
2019-05-16T05:07:52.141Z,5.20
2019-05-16T05:08:59.102Z,5.80
2019-05-16T05:10:00.537Z,4.20
2019-05-16T05:11:03.498Z,4.80
2019-05-16T05:12:05.786Z,5.20
2019-05-16T05:13:10.803Z,5.60
2019-05-16T05:14:12.789Z,5.60
2019-05-16T05:15:15.430Z,5.00
2019-05-16T05:16:20.162Z,4.60
2019-05-16T05:17:22.002Z,5.20
2019-05-16T05:18:30.200Z,4.80
2019-05-16T05:19:30.817Z,6.00
2019-05-16T05:20:33.178Z,13.00
2019-05-16T05:21:35.981Z,9.80
2019-05-16T05:22:39.755Z,5.80
2019-05-16T05:23:44.772Z,7.00
2019-05-16T05:24:47.944Z,10.20
2019-05-16T05:25:51.241Z,14.60
2019-05-16T05:26:56.614Z,14.00
2019-05-16T05:28:00.433Z,5.00
2019-05-16T05:29:04.837Z,11.80
2019-05-16T05:30:10.477Z,6.20
2019-05-16T05:31:12.741Z,5.00
2019-05-16T05:32:15.660Z,5.40
2019-05-16T05:33:20.992Z,13.00
2019-05-16T05:34:22.483Z,6.80
2019-05-16T05:35:26.560Z,5.00
2019-05-16T05:36:30.046Z,7.20
2019-05-16T05:37:34.729Z,10.20
2019-05-16T05:38:40.264Z,9.80
2019-05-16T05:39:42.567Z,5.80
2019-05-16T05:40:46.390Z,6.00
2019-05-16T05:41:50.441Z,5.00
2019-05-16T05:42:53.139Z,7.00
2019-05-16T05:43:55.840Z,4.00
2019-05-16T05:45:01.802Z,5.00
2019-05-16T05:46:04.240Z,6.00
2019-05-16T05:47:06.540Z,6.20
2019-05-16T05:48:10.770Z,6.00
2019-05-16T05:49:13.641Z,5.80
2019-05-16T05:50:16.707Z,5.80
2019-05-16T05:51:21.862Z,4.60
2019-05-16T05:52:24.432Z,5.80
2019-05-16T05:53:26.858Z,6.20
2019-05-16T05:54:30.831Z,6.00
2019-05-16T05:55:32.875Z,6.00
2019-05-16T05:56:35.208Z,4.60
2019-05-16T05:57:40.443Z,6.00
2019-05-16T05:58:42.155Z,5.00
2019-05-16T05:59:49.768Z,4.80
2019-05-16T06:00:52.775Z,5.60
2019-05-16T06:01:57.310Z,6.00
2019-05-16T06:03:00.180Z,5.00
2019-05-16T06:04:03.312Z,7.00
2019-05-16T06:05:07.144Z,5.20
2019-05-16T06:06:10.520Z,12.00
2019-05-16T06:07:13.812Z,5.60
2019-05-16T06:08:20.101Z,5.00
2019-05-16T06:09:29.068Z,23.40
2019-05-16T06:10:30.293Z,21.20
2019-05-16T06:11:32.695Z,9.40
2019-05-16T06:12:35.157Z,14.80
2019-05-16T06:13:37.639Z,14.00
2019-05-16T06:14:41.788Z,7.00
2019-05-16T06:15:43.811Z,5.00
2019-05-16T06:16:46.105Z,6.40
2019-05-16T06:17:50.797Z,7.00
2019-05-16T06:18:56.682Z,6.00
2019-05-16T06:20:00.441Z,10.40
2019-05-16T06:21:04.386Z,8.80
2019-05-16T06:22:10.039Z,9.60
2019-05-16T06:23:13.409Z,6.00
2019-05-16T06:24:16.390Z,6.00
2019-05-16T06:25:22.803Z,10.00
2019-05-16T06:26:24.234Z,7.00
2019-05-16T06:27:27.237Z,6.40
2019-05-16T06:28:30.865Z,7.00
2019-05-16T06:29:33.587Z,6.00
2019-05-16T06:30:35.870Z,10.00
2019-05-16T06:31:40.612Z,9.00
2019-05-16T06:32:43.193Z,7.00
2019-05-16T06:33:46.277Z,7.00
2019-05-16T06:34:50.739Z,6.80
2019-05-16T06:35:53.035Z,7.80
2019-05-16T06:36:55.802Z,6.00
2019-05-16T06:38:00.487Z,7.00
2019-05-16T06:39:05.414Z,8.80
2019-05-16T06:40:08.101Z,6.40
2019-05-16T06:41:10.840Z,13.20
2019-05-16T06:42:13.770Z,9.60
2019-05-16T06:43:16.243Z,9.80
2019-05-16T06:44:20.281Z,14.40
2019-05-16T06:45:23.804Z,8.00
2019-05-16T06:46:26.190Z,8.20
2019-05-16T06:47:30.555Z,8.80
2019-05-16T06:48:34.796Z,8.40
2019-05-16T06:49:37.250Z,9.00
2019-05-16T06:50:40.231Z,14.40
2019-05-16T06:51:42.662Z,8.00
2019-05-16T06:52:45.896Z,10.00
2019-05-16T06:53:50.035Z,12.80
2019-05-16T06:54:53.945Z,9.60
2019-05-16T06:55:56.461Z,9.60
2019-05-16T06:57:00.119Z,7.80
2019-05-16T06:58:04.118Z,9.20
2019-05-16T06:59:06.835Z,9.60
2019-05-16T07:00:10.970Z,10.00
2019-05-16T07:01:15.313Z,10.80
2019-05-16T07:02:27.670Z,11.00
2019-05-16T07:03:22.362Z,9.80
2019-05-16T07:04:24.860Z,10.00
2019-05-16T07:05:27.124Z,12.00
2019-05-16T07:06:51.724Z,11.00
2019-05-16T07:07:34.877Z,11.00
2019-05-16T07:08:40.140Z,11.20
2019-05-16T07:09:57.337Z,10.40
2019-05-16T07:10:47.388Z,10.40
2019-05-16T07:11:50.534Z,13.00
2019-05-16T07:12:55.722Z,10.00
2019-05-16T07:14:00.736Z,8.40
2019-05-16T07:15:06.927Z,21.80
2019-05-16T07:16:09.717Z,8.40
2019-05-16T07:17:12.294Z,10.00
2019-05-16T07:18:15.356Z,9.00
2019-05-16T07:19:17.629Z,11.20
2019-05-16T07:20:21.873Z,10.00
2019-05-16T07:21:24.877Z,11.40
2019-05-16T07:22:27.756Z,12.00
2019-05-16T07:23:30.116Z,15.60
2019-05-16T07:24:34.804Z,12.80
2019-05-16T07:25:37.571Z,10.60
2019-05-16T07:26:40.551Z,10.80
2019-05-16T07:27:43.470Z,12.60
2019-05-16T07:28:46.269Z,13.60
2019-05-16T07:29:50.848Z,12.60
2019-05-16T07:30:54.214Z,9.60
2019-05-16T07:32:00.502Z,9.80
2019-05-16T07:33:04.163Z,9.00
2019-05-16T07:34:10.774Z,9.80
2019-05-16T07:35:14.011Z,8.80
2019-05-16T07:36:17.240Z,10.00
2019-05-16T07:37:20.307Z,8.80
2019-05-16T07:38:22.831Z,10.00
2019-05-16T07:39:26.590Z,10.40
2019-05-16T07:40:30.778Z,9.20
2019-05-16T07:41:33.774Z,11.60
2019-05-16T07:42:36.609Z,15.40
2019-05-16T07:43:40.075Z,10.00
2019-05-16T07:44:42.460Z,9.20
2019-05-16T07:45:51.155Z,9.00
2019-05-16T07:46:51.806Z,9.00
2019-05-16T07:47:54.158Z,10.00
2019-05-16T07:49:00.931Z,11.80
2019-05-16T07:50:07.610Z,12.00
2019-05-16T07:51:10.811Z,10.20
2019-05-16T07:52:12.542Z,9.00
2019-05-16T07:53:15.104Z,8.80
2019-05-16T07:54:17.591Z,9.00
2019-05-16T07:55:20.939Z,10.00
2019-05-16T07:56:24.390Z,9.80
2019-05-16T07:57:27.157Z,8.80
2019-05-16T07:58:32.491Z,9.20
2019-05-16T07:59:35.132Z,9.80
2019-05-16T08:00:49.641Z,8.80
2019-05-16T08:01:43.741Z,12.00
2019-05-16T08:02:46.382Z,11.00
2019-05-16T08:03:51.002Z,13.20
2019-05-16T08:04:53.591Z,13.60
2019-05-16T08:05:56.210Z,9.80
2019-05-16T08:07:00.693Z,7.80
2019-05-16T08:08:03.979Z,8.60
2019-05-16T08:09:07.825Z,10.40
2019-05-16T08:10:11.512Z,11.00
2019-05-16T08:11:14.399Z,10.00
2019-05-16T08:12:22.676Z,10.00
2019-05-16T08:13:23.185Z,10.40
2019-05-16T08:14:25.475Z,12.00
2019-05-16T08:15:30.366Z,12.00
2019-05-16T08:16:33.434Z,9.40
2019-05-16T08:17:36.203Z,11.60
2019-05-16T08:18:44.666Z,17.20
2019-05-16T08:19:43.017Z,16.40
2019-05-16T08:20:45.693Z,13.80
2019-05-16T08:21:50.518Z,9.40
2019-05-16T08:22:53.257Z,8.40
2019-05-16T08:23:55.909Z,9.80
2019-05-16T08:25:00.119Z,8.00
2019-05-16T08:26:03.007Z,11.00
2019-05-16T08:27:07.430Z,10.60
2019-05-16T08:28:11.813Z,11.60
2019-05-16T08:29:14.849Z,11.40
2019-05-16T08:30:21.060Z,10.00
2019-05-16T08:31:23.402Z,8.20
2019-05-16T08:32:26.070Z,7.00
2019-05-16T08:33:31.213Z,8.00
2019-05-16T08:34:33.070Z,9.20
2019-05-16T08:35:35.490Z,8.00
2019-05-16T08:36:41.025Z,12.40
2019-05-16T08:37:46.891Z,14.80
2019-05-16T08:38:47.090Z,12.40
2019-05-16T08:39:50.940Z,11.20
2019-05-16T08:42:07.837Z,16.60
2019-05-16T08:43:03.330Z,14.80
2019-05-16T08:44:05.836Z,16.00
2019-05-16T08:45:12.646Z,20.20
2019-05-16T08:46:13.912Z,21.20
2019-05-16T08:47:16.411Z,18.20
2019-05-16T08:48:23.237Z,18.80
2019-05-16T08:49:26.543Z,17.00
2019-05-16T08:50:05.526Z,10.40
2019-05-16T08:50:28.726Z,21.20
2019-05-16T08:51:33.239Z,15.80
2019-05-16T08:52:35.458Z,17.80
2019-05-16T08:53:42.519Z,30.80
2019-05-16T08:54:43.793Z,20.00
2019-05-16T08:55:46.919Z,20.60
2019-05-16T08:56:51.074Z,20.80
2019-05-16T08:57:55.052Z,19.00
2019-05-16T08:58:57.614Z,17.40
2019-05-16T09:00:01.205Z,18.60
2019-05-16T09:01:03.509Z,23.80
2019-05-16T09:02:05.989Z,21.80
2019-05-16T09:03:12.378Z,24.00
2019-05-16T09:04:15.011Z,19.60
2019-05-16T09:05:17.740Z,17.00
2019-05-16T09:06:22.984Z,23.20
2019-05-16T09:07:25.167Z,20.00
2019-05-16T09:08:28.754Z,22.20
2019-05-16T09:09:42.130Z,20.80
2019-05-16T09:10:49.272Z,22.00
2019-05-16T09:11:44.625Z,22.20
2019-05-16T09:12:43.338Z,21.60
2019-05-16T09:13:49.594Z,11.40
2019-05-16T09:14:52.344Z,13.20
2019-05-16T09:15:57.117Z,14.00
2019-05-16T09:17:00.247Z,9.80
2019-05-16T09:18:03.586Z,12.00
2019-05-16T09:19:07.801Z,11.60
2019-05-16T09:20:10.678Z,9.40
2019-05-16T09:21:13.779Z,10.00
2019-05-16T09:22:17.937Z,11.20
2019-05-16T09:23:20.899Z,10.80
2019-05-16T09:24:23.589Z,10.20
2019-05-16T09:25:27.508Z,10.40
2019-05-16T09:26:31.827Z,9.80
2019-05-16T09:27:34.640Z,8.80
2019-05-16T09:28:39.102Z,13.00
2019-05-16T09:29:42.113Z,12.40
2019-05-16T09:30:47.818Z,12.40
2019-05-16T09:32:08.110Z,9.00
2019-05-16T09:32:58.611Z,9.00
2019-05-16T09:34:02.253Z,10.20
2019-05-16T09:35:08.085Z,8.80
2019-05-16T09:36:11.408Z,10.60
2019-05-16T09:37:17.996Z,9.60
2019-05-16T09:38:23.721Z,8.00
2019-05-16T09:39:27.731Z,13.80
2019-05-16T09:40:32.190Z,9.00
2019-05-16T09:41:47.629Z,10.20
2019-05-16T09:42:41.686Z,12.40
2019-05-16T09:43:48.440Z,9.20
2019-05-16T09:44:51.063Z,12.00
2019-05-16T09:46:02.658Z,8.60
2019-05-16T09:46:58.158Z,13.20
2019-05-16T09:48:00.605Z,17.00
2019-05-16T09:49:16.645Z,9.00
2019-05-16T09:50:10.790Z,10.80
2019-05-16T09:51:17.086Z,9.00
2019-05-16T09:52:19.409Z,10.00
2019-05-16T09:53:23.776Z,9.80
2019-05-16T09:54:27.373Z,10.00
2019-05-16T09:55:30.202Z,13.00
2019-05-16T09:56:33.242Z,11.40
2019-05-16T09:57:37.677Z,9.00
2019-05-16T09:58:40.888Z,9.20
2019-05-16T09:59:46.513Z,8.60
2019-05-16T10:00:49.229Z,8.40
2019-05-16T10:01:51.957Z,9.20
2019-05-16T10:02:57.921Z,9.00
2019-05-16T10:04:00.738Z,8.00
2019-05-16T10:05:12.446Z,9.40
2019-05-16T10:06:12.181Z,10.20
2019-05-16T10:07:17.805Z,9.80
2019-05-16T10:08:19.728Z,9.20
2019-05-16T10:09:40.261Z,8.80
2019-05-16T10:10:28.559Z,8.00
2019-05-16T10:11:31.950Z,7.80
2019-05-16T10:12:36.951Z,11.60
2019-05-16T10:13:41.386Z,11.60
2019-05-16T10:14:43.805Z,12.20
2019-05-16T10:15:47.237Z,12.40
2019-05-16T10:16:50.301Z,10.00
2019-05-16T10:17:53.460Z,12.40
2019-05-16T10:18:56.782Z,12.00
2019-05-16T10:20:01.834Z,13.40
2019-05-16T10:21:07.692Z,10.40
2019-05-16T10:22:10.356Z,11.00
2019-05-16T10:23:17.975Z,8.00
2019-05-16T10:24:22.498Z,12.80
2019-05-16T10:25:28.461Z,12.40
2019-05-16T10:26:31.391Z,10.40
2019-05-16T10:27:37.326Z,9.20
2019-05-16T10:28:39.921Z,7.00
2019-05-16T10:29:48.530Z,7.40
2019-05-16T10:30:50.999Z,8.00
2019-05-16T10:31:53.653Z,8.00
2019-05-16T10:32:57.573Z,8.00
2019-05-16T10:34:01.091Z,15.40
2019-05-16T10:35:05.238Z,12.60
2019-05-16T10:36:08.687Z,11.60
2019-05-16T10:37:11.709Z,12.40
2019-05-16T10:38:13.965Z,9.80
2019-05-16T10:39:16.247Z,8.20
2019-05-16T10:40:18.608Z,10.00
2019-05-16T10:41:21.348Z,9.00
2019-05-16T10:42:28.736Z,7.00
2019-05-16T10:43:29.707Z,9.20
2019-05-16T10:44:33.065Z,9.00
2019-05-16T10:45:36.925Z,8.20
2019-05-16T10:46:39.796Z,8.00
2019-05-16T10:47:42.699Z,13.00
2019-05-16T10:48:47.093Z,11.40
2019-05-16T10:49:49.906Z,8.40
2019-05-16T10:50:52.470Z,13.20
2019-05-16T10:51:57.731Z,7.80
2019-05-16T10:53:27.975Z,8.00
2019-05-16T10:54:13.395Z,9.60
2019-05-16T10:55:12.561Z,9.40
2019-05-16T10:56:15.500Z,14.20
2019-05-16T10:57:19.542Z,12.00
2019-05-16T10:58:35.443Z,11.40
2019-05-16T11:01:11.149Z,9.20
2019-05-16T11:01:37.588Z,10.00
2019-05-16T11:02:40.384Z,12.40
2019-05-16T11:03:48.848Z,12.80
2019-05-16T11:05:00.031Z,11.20
2019-05-16T11:06:03.049Z,13.00
2019-05-16T11:06:59.012Z,11.20
2019-05-16T11:08:01.924Z,10.60
2019-05-16T11:09:06.539Z,8.00
2019-05-16T11:10:10.463Z,9.00
2019-05-16T11:11:12.767Z,10.00
2019-05-16T11:12:19.925Z,14.40
2019-05-16T11:13:21.034Z,11.80
2019-05-16T11:14:24.277Z,12.60
2019-05-16T11:15:28.478Z,9.80
2019-05-16T11:16:30.544Z,6.60
2019-05-16T11:17:33.343Z,8.00
2019-05-16T11:18:37.590Z,7.80
2019-05-16T11:19:42.173Z,7.60
2019-05-16T11:20:48.908Z,9.80
2019-05-16T11:21:48.859Z,7.40
2019-05-16T11:22:52.681Z,7.00
2019-05-16T11:23:56.511Z,7.20
2019-05-16T11:24:59.550Z,6.00
2019-05-16T11:26:02.903Z,8.20
2019-05-16T11:27:07.493Z,9.00
2019-05-16T11:28:10.156Z,8.00
2019-05-16T11:29:12.549Z,8.20
2019-05-16T11:30:18.059Z,9.00
2019-05-16T11:31:20.827Z,7.80
2019-05-16T11:32:26.970Z,9.00
2019-05-16T11:33:29.329Z,6.40
2019-05-16T11:34:31.982Z,7.80
2019-05-16T11:35:34.485Z,8.00
2019-05-16T11:36:37.662Z,8.80
2019-05-16T11:37:40.313Z,8.00
2019-05-16T11:38:43.118Z,10.20
2019-05-16T11:39:46.567Z,6.60
2019-05-16T11:40:49.114Z,8.00
2019-05-16T11:41:51.885Z,10.40
2019-05-16T11:43:06.547Z,8.60
2019-05-16T11:44:02.352Z,8.00
2019-05-16T11:45:10.040Z,8.00
2019-05-16T11:46:13.034Z,7.40
2019-05-16T11:47:17.059Z,8.40
2019-05-16T11:48:19.870Z,8.60
2019-05-16T11:49:21.666Z,8.00
2019-05-16T11:50:24.562Z,7.60
2019-05-16T11:51:27.419Z,8.80
2019-05-16T11:52:29.783Z,9.00
2019-05-16T11:53:32.852Z,9.00
2019-05-16T11:54:37.206Z,8.00
2019-05-16T11:55:51.768Z,8.20
2019-05-16T11:56:46.669Z,7.20
2019-05-16T11:57:49.259Z,8.80
2019-05-16T11:58:51.569Z,7.60
2019-05-16T11:59:56.712Z,8.40
2019-05-16T12:00:58.861Z,8.00
2019-05-16T12:02:03.075Z,7.60
2019-05-16T12:03:05.617Z,8.00
2019-05-16T12:04:08.384Z,10.20
2019-05-16T12:05:11.687Z,10.00
2019-05-16T12:06:14.230Z,8.60
2019-05-16T12:07:19.158Z,8.80
2019-05-16T12:08:20.851Z,9.40
2019-05-16T12:09:23.865Z,8.80
2019-05-16T12:10:27.057Z,6.20
2019-05-16T12:11:33.084Z,6.80
2019-05-16T12:12:37.219Z,9.00
2019-05-16T12:13:41.678Z,7.40
2019-05-16T12:14:45.284Z,8.00
2019-05-16T12:15:47.387Z,10.60
2019-05-16T12:16:50.053Z,9.60
2019-05-16T12:18:00.869Z,9.00
2019-05-16T12:19:07.456Z,8.40
2019-05-16T12:20:10.170Z,8.60
2019-05-16T12:21:12.479Z,7.20
2019-05-16T12:22:18.298Z,9.00
2019-05-16T12:23:22.848Z,8.40
2019-05-16T12:24:33.337Z,8.80
2019-05-16T12:25:31.045Z,9.20
2019-05-16T12:26:33.765Z,7.60
2019-05-16T12:27:42.008Z,8.40
2019-05-16T12:28:40.337Z,8.00
2019-05-16T12:29:47.730Z,8.20
2019-05-16T12:30:49.374Z,8.40
2019-05-16T12:31:57.488Z,8.60
2019-05-16T12:32:58.060Z,7.40
2019-05-16T12:34:00.685Z,7.20
2019-05-16T12:35:06.493Z,8.00
2019-05-16T12:36:11.003Z,8.20
2019-05-16T12:37:13.399Z,9.00
2019-05-16T12:38:17.035Z,9.00
2019-05-16T12:39:20.445Z,7.80
2019-05-16T12:40:23.113Z,7.40
2019-05-16T12:41:28.670Z,7.60
2019-05-16T12:42:30.938Z,7.60
2019-05-16T12:43:45.949Z,8.40
2019-05-16T12:44:38.642Z,8.00
2019-05-16T12:45:41.691Z,7.40
2019-05-16T12:46:47.262Z,9.80
2019-05-16T12:47:49.750Z,9.00
2019-05-16T12:48:52.383Z,8.60
2019-05-16T12:49:56.624Z,8.00
2019-05-16T12:51:00.948Z,8.40
2019-05-16T12:52:06.582Z,10.00
2019-05-16T12:53:09.045Z,8.20
2019-05-16T12:54:11.445Z,9.00
2019-05-16T12:55:16.600Z,9.00
2019-05-16T12:56:19.447Z,8.00
2019-05-16T12:57:30.113Z,8.80
2019-05-16T12:58:37.877Z,8.00
2019-05-16T12:59:32.775Z,10.40
2019-05-16T13:00:37.086Z,7.00
2019-05-16T13:01:40.072Z,10.00
2019-05-16T13:02:47.341Z,9.40
2019-05-16T13:03:50.719Z,7.00
2019-05-16T13:04:54.306Z,9.00
2019-05-16T13:05:57.283Z,8.00
2019-05-16T13:07:00.008Z,8.60
2019-05-16T13:08:03.205Z,7.40
2019-05-16T13:09:06.985Z,9.60
2019-05-16T13:10:10.079Z,9.80
2019-05-16T13:11:13.211Z,9.00
2019-05-16T13:12:17.510Z,9.20
2019-05-16T13:13:20.397Z,10.00
2019-05-16T13:14:23.319Z,8.60
2019-05-16T13:15:27.300Z,12.80
2019-05-16T13:16:31.665Z,10.60
2019-05-16T13:17:37.333Z,9.20
2019-05-16T13:18:41.909Z,7.80
2019-05-16T13:19:48.163Z,9.80
2019-05-16T13:20:52.700Z,9.00
2019-05-16T13:21:57.773Z,10.00
2019-05-16T13:22:59.961Z,8.60
2019-05-16T13:24:06.850Z,6.60
2019-05-16T13:25:09.353Z,6.80
2019-05-16T13:26:13.139Z,8.40
2019-05-16T13:27:22.570Z,7.20
2019-05-16T13:28:20.421Z,7.80
2019-05-16T13:29:27.284Z,8.00
2019-05-16T13:30:28.743Z,6.00
2019-05-16T13:31:31.255Z,8.20
2019-05-16T13:32:34.197Z,9.60
2019-05-16T13:33:37.746Z,8.00
2019-05-16T13:34:41.109Z,7.00
2019-05-16T13:35:46.974Z,6.80
2019-05-16T13:36:48.334Z,9.00
2019-05-16T13:37:53.307Z,9.20
2019-05-16T13:38:57.324Z,9.20
2019-05-16T13:40:04.034Z,10.60
2019-05-16T13:41:07.664Z,7.00
2019-05-16T13:42:10.360Z,8.00
2019-05-16T13:43:12.917Z,11.60
2019-05-16T13:44:21.933Z,7.00
2019-05-16T13:45:21.340Z,9.40
2019-05-16T13:46:27.222Z,10.20
2019-05-16T13:47:30.501Z,8.20
2019-05-16T13:48:33.491Z,10.00
2019-05-16T13:49:38.527Z,11.80
2019-05-16T13:50:41.174Z,8.00
2019-05-16T13:51:43.073Z,14.20
2019-05-16T13:52:48.178Z,11.20
2019-05-16T13:53:52.171Z,9.00
2019-05-16T13:54:56.297Z,11.60
2019-05-16T13:55:59.556Z,9.40
2019-05-16T13:57:03.578Z,9.80
2019-05-16T13:58:07.903Z,10.80